Time;durP1;ratioP1;P1;durP2;ratioP2;P2;SDS_P1;SDS_P2;PMS_P1;PMS_P2;Temp;Humidity;BMP_temperature;BMP_pressure;BME280_temperature;BME280_humidity;BME280_pressure;Samples;Min_cycle;Max_cycle;Signal;HPM_P1;HPM_P2
2022/01/14 00:01:17;;;;;;;36.40;19.17;;;6.00;99.90;;;;;;4980055;28;20489;-74
2022/01/14 00:03:42;;;;;;;42.20;19.70;;;6.00;99.90;;;;;;4972766;28;20043;-74
2022/01/14 00:06:09;;;;;;;33.83;19.00;;;6.00;99.90;;;;;;4982090;28;20744;-74
2022/01/14 00:08:35;;;;;;;34.97;18.88;;;6.00;99.90;;;;;;4990033;28;20050;-74
2022/01/14 00:11:03;;;;;;;36.90;18.35;;;6.00;99.90;;;;;;4976557;28;20125;-74
2022/01/14 00:16:05;;;;;;;37.63;19.35;;;6.00;99.90;;;;;;4978966;28;20510;-74
2022/01/14 00:18:31;;;;;;;31.92;18.90;;;6.00;99.90;;;;;;4971821;28;20035;-74
2022/01/14 00:20:56;;;;;;;37.30;18.45;;;6.00;99.90;;;;;;4975357;28;20243;-74
2022/01/14 00:23:30;;;;;;;36.38;18.15;;;6.00;99.90;;;;;;4972826;28;20050;-74
2022/01/14 00:31:45;;;;;;;37.67;17.60;;;6.00;99.90;;;;;;4977265;28;20046;-74
2022/01/14 00:34:11;;;;;;;35.38;18.10;;;6.00;99.90;;;;;;4985352;28;20049;-74
2022/01/14 00:36:38;;;;;;;38.05;18.30;;;6.20;99.90;;;;;;4973523;28;20034;-74
2022/01/14 00:39:07;;;;;;;34.45;18.33;;;6.00;99.90;;;;;;4978379;28;20070;-74
2022/01/14 00:41:36;;;;;;;35.30;18.25;;;6.00;99.90;;;;;;4989120;28;20058;-74
2022/01/14 00:44:08;;;;;;;33.88;17.48;;;6.00;99.90;;;;;;5003713;28;20046;-74
2022/01/14 00:46:33;;;;;;;37.17;17.25;;;6.00;99.90;;;;;;4981159;28;20458;-74
2022/01/14 00:48:59;;;;;;;31.52;17.88;;;6.00;99.90;;;;;;4978704;28;20138;-74
2022/01/14 00:51:25;;;;;;;32.85;17.70;;;6.10;99.90;;;;;;4980517;28;20510;-74
2022/01/14 00:53:50;;;;;;;33.45;17.15;;;6.00;99.90;;;;;;4980751;28;20397;-74
2022/01/14 00:56:47;;;;;;;39.55;17.80;;;6.00;99.90;;;;;;4984519;28;20043;-74
2022/01/14 00:59:14;;;;;;;35.65;17.85;;;6.00;99.90;;;;;;4992440;28;20050;-75
2022/01/14 01:01:43;;;;;;;33.25;17.83;;;6.00;99.90;;;;;;4978720;28;20050;-74
2022/01/14 01:04:12;;;;;;;34.97;17.25;;;6.00;99.90;;;;;;4982480;28;20077;-74
2022/01/14 01:06:39;;;;;;;37.00;18.05;;;6.00;99.90;;;;;;4983121;28;20388;-74
2022/01/14 01:09:15;;;;;;;36.65;17.77;;;6.00;99.90;;;;;;4983831;28;20050;-74
2022/01/14 01:12:06;;;;;;;36.60;17.45;;;6.00;99.90;;;;;;4971961;28;20048;-74
2022/01/14 01:14:41;;;;;;;31.92;17.35;;;6.00;99.90;;;;;;4988149;28;20092;-74
2022/01/14 01:17:07;;;;;;;29.52;17.17;;;6.00;99.90;;;;;;4996127;28;20043;-74
2022/01/14 01:19:33;;;;;;;31.10;17.17;;;6.00;99.90;;;;;;4972517;28;20054;-74
2022/01/14 01:21:59;;;;;;;36.63;17.55;;;6.00;99.90;;;;;;4983869;28;20416;-74
2022/01/14 01:24:24;;;;;;;37.72;17.77;;;6.00;99.90;;;;;;4978334;28;20047;-74
2022/01/14 01:26:51;;;;;;;36.72;17.27;;;6.00;99.90;;;;;;4983670;28;20548;-74
2022/01/14 01:31:49;;;;;;;32.33;16.52;;;5.90;99.90;;;;;;4983761;28;20054;-74
2022/01/14 01:34:19;;;;;;;29.80;15.90;;;5.90;99.90;;;;;;4978728;28;20363;-74
2022/01/14 01:36:47;;;;;;;33.10;16.75;;;5.90;99.90;;;;;;5004527;28;20071;-74
2022/01/14 01:39:26;;;;;;;30.27;15.57;;;5.90;99.90;;;;;;4978894;28;20158;-74
2022/01/14 01:41:58;;;;;;;30.33;15.57;;;5.90;99.90;;;;;;4977303;28;20054;-74
2022/01/14 01:44:25;;;;;;;33.65;16.15;;;5.90;99.90;;;;;;4977114;28;20081;-74
2022/01/14 01:46:52;;;;;;;28.25;16.05;;;5.90;99.90;;;;;;4973045;28;20091;-74
2022/01/14 01:49:21;;;;;;;32.38;16.55;;;5.90;99.90;;;;;;4976869;28;20061;-74
2022/01/14 01:51:48;;;;;;;33.30;16.67;;;5.90;99.90;;;;;;4987749;28;20062;-74
2022/01/14 01:54:15;;;;;;;34.13;16.38;;;5.80;99.90;;;;;;4974173;28;20054;-74
2022/01/14 01:56:41;;;;;;;35.03;15.88;;;5.80;99.90;;;;;;4978657;28;20065;-74
2022/01/14 01:59:09;;;;;;;28.83;17.02;;;5.80;99.90;;;;;;4994742;28;20129;-74
2022/01/14 02:01:37;;;;;;;35.08;16.40;;;6.10;99.90;;;;;;4972482;28;20047;-74
2022/01/14 02:04:03;;;;;;;30.42;15.93;;;5.80;99.90;;;;;;4989746;28;20057;-74
2022/01/14 02:06:30;;;;;;;40.78;18.50;;;5.80;99.90;;;;;;4985410;28;20046;-74
2022/01/14 02:08:56;;;;;;;30.80;17.08;;;5.80;99.90;;;;;;4975545;28;20082;-74
2022/01/14 02:11:22;;;;;;;35.45;15.68;;;5.80;99.90;;;;;;4977412;28;20367;-74
2022/01/14 02:13:50;;;;;;;35.30;17.48;;;5.90;99.90;;;;;;4987998;28;20100;-74
2022/01/14 02:19:14;;;;;;;32.72;16.38;;;5.90;99.90;;;;;;4979738;28;20662;-74
2022/01/14 02:24:55;;;;;;;;;;;5.90;99.90;;;;;;4976576;28;20054;-75
2022/01/14 02:27:19;;;;;;;32.47;16.60;;;5.90;99.90;;;;;;5009791;28;19920;-74
2022/01/14 02:29:45;;;;;;;27.63;15.73;;;5.90;99.90;;;;;;5028492;28;20041;-74
2022/01/14 02:32:11;;;;;;;34.78;16.67;;;5.90;99.90;;;;;;4977104;28;20382;-74
2022/01/14 02:34:38;;;;;;;32.53;16.98;;;5.90;99.90;;;;;;4972286;28;20348;-73
2022/01/14 02:37:04;;;;;;;35.67;16.70;;;5.90;99.90;;;;;;4978556;28;20054;-74
2022/01/14 02:39:30;;;;;;;39.20;16.27;;;5.90;99.90;;;;;;4982786;28;20073;-73
2022/01/14 02:41:56;;;;;;;31.05;16.05;;;5.90;99.90;;;;;;4984061;28;20058;-74
2022/01/14 02:44:25;;;;;;;31.23;16.65;;;5.90;99.90;;;;;;5052520;28;20086;-74
2022/01/14 02:46:57;;;;;;;38.70;18.27;;;5.90;99.90;;;;;;4974920;28;20043;-73
2022/01/14 02:49:27;;;;;;;36.28;18.80;;;5.90;99.90;;;;;;4979060;28;20444;-73
2022/01/14 02:51:53;;;;;;;30.00;16.55;;;5.90;99.90;;;;;;4974650;28;20493;-74
2022/01/14 02:54:24;;;;;;;35.17;17.52;;;5.90;99.90;;;;;;4978460;28;20104;-73
2022/01/14 02:56:55;;;;;;;28.70;16.67;;;6.00;99.90;;;;;;4978765;28;20043;-74
2022/01/14 02:59:21;;;;;;;32.83;17.63;;;6.00;99.90;;;;;;5006421;28;20050;-73
2022/01/14 03:01:49;;;;;;;34.00;17.08;;;6.00;99.90;;;;;;4974061;28;20561;-74
2022/01/14 03:04:18;;;;;;;29.98;16.38;;;6.00;99.90;;;;;;4987042;28;20046;-73
2022/01/14 03:06:44;;;;;;;36.47;17.63;;;6.00;99.90;;;;;;4984026;28;20045;-75
2022/01/14 03:09:10;;;;;;;34.33;18.02;;;6.00;99.90;;;;;;4988858;28;20038;-75
2022/01/14 03:11:52;;;;;;;34.92;17.52;;;6.00;99.90;;;;;;4986401;28;20083;-73
2022/01/14 03:14:22;;;;;;;31.88;19.33;;;6.00;99.90;;;;;;5024984;28;20058;-74
2022/01/14 03:16:53;;;;;;;42.33;18.27;;;6.00;99.90;;;;;;4975129;28;20035;-73
2022/01/14 03:19:23;;;;;;;36.22;18.52;;;6.00;99.90;;;;;;4979010;28;20048;-74
2022/01/14 03:21:52;;;;;;;35.00;19.85;;;6.00;99.90;;;;;;4970045;28;20042;-74
2022/01/14 03:25:35;;;;;;;42.92;19.00;;;6.00;99.90;;;;;;4985190;28;20078;-74
2022/01/14 03:27:06;;;;;;;37.13;17.35;;;6.00;99.90;;;;;;4978647;28;20580;-74
2022/01/14 03:29:32;;;;;;;33.65;18.02;;;6.00;99.90;;;;;;4999069;28;20115;-74
2022/01/14 03:31:57;;;;;;;31.90;17.13;;;6.00;99.90;;;;;;4991317;28;20042;-75
2022/01/14 03:34:23;;;;;;;33.97;17.25;;;6.10;99.90;;;;;;4982606;28;20059;-74
2022/01/14 03:36:48;;;;;;;35.63;17.83;;;6.10;99.90;;;;;;4978371;28;20034;-74
2022/01/14 03:39:14;;;;;;;31.40;15.95;;;6.10;99.90;;;;;;4974700;28;20498;-74
2022/01/14 03:41:40;;;;;;;39.30;17.55;;;6.10;99.90;;;;;;4981358;28;20047;-74
2022/01/14 03:44:06;;;;;;;43.35;18.08;;;6.10;99.90;;;;;;4984267;28;20417;-74
2022/01/14 03:46:31;;;;;;;38.60;17.25;;;6.10;99.90;;;;;;5042554;28;20483;-74
2022/01/14 03:48:57;;;;;;;34.40;16.08;;;6.10;99.90;;;;;;4980120;28;20059;-74
2022/01/14 03:51:23;;;;;;;38.75;17.92;;;6.10;99.90;;;;;;5080515;28;20040;-74
2022/01/14 03:53:49;;;;;;;38.55;18.80;;;6.10;99.90;;;;;;4987360;28;20050;-74
2022/01/14 03:56:16;;;;;;;37.72;19.10;;;6.00;99.90;;;;;;4976028;28;20050;-74
2022/01/14 03:58:42;;;;;;;37.50;18.02;;;6.00;99.90;;;;;;5063937;28;20085;-74
2022/01/14 04:01:12;;;;;;;42.13;19.17;;;6.10;99.90;;;;;;5023133;28;20052;-74
2022/01/14 04:03:38;;;;;;;41.58;18.60;;;6.00;99.90;;;;;;4988480;28;20074;-75
2022/01/14 04:06:05;;;;;;;40.25;19.50;;;6.00;99.90;;;;;;4979486;28;20591;-74
2022/01/14 04:08:31;;;;;;;36.72;19.27;;;6.40;99.90;;;;;;4986473;28;20058;-74
2022/01/14 04:10:58;;;;;;;36.45;19.08;;;6.10;99.90;;;;;;4975673;28;20132;-74
2022/01/14 04:13:37;;;;;;;43.90;19.35;;;6.00;99.90;;;;;;4973084;28;20397;-74
2022/01/14 04:16:03;;;;;;;39.40;18.98;;;6.00;99.90;;;;;;4986807;28;20043;-74
2022/01/14 04:18:29;;;;;;;42.70;19.33;;;6.00;99.90;;;;;;4990218;28;20042;-74
2022/01/14 04:20:55;;;;;;;42.75;18.77;;;6.10;99.90;;;;;;4992981;28;20125;-74
2022/01/14 04:23:24;;;;;;;36.30;18.83;;;6.00;99.90;;;;;;4971749;28;20080;-74
2022/01/14 04:25:53;;;;;;;39.88;19.23;;;6.00;99.90;;;;;;4987123;28;20117;-74
2022/01/14 04:28:20;;;;;;;43.53;19.77;;;6.00;99.90;;;;;;4982504;28;20034;-74
2022/01/14 04:30:46;;;;;;;38.80;18.08;;;6.00;99.90;;;;;;4976243;28;20050;-74
2022/01/14 04:33:13;;;;;;;42.10;18.80;;;6.00;99.90;;;;;;4994241;28;20034;-74
2022/01/14 04:35:38;;;;;;;40.05;18.77;;;6.00;99.90;;;;;;4981970;28;20074;-74
2022/01/14 04:38:04;;;;;;;39.80;19.40;;;6.00;99.90;;;;;;4987344;28;20489;-74
2022/01/14 04:40:31;;;;;;;39.22;18.58;;;6.00;99.90;;;;;;4983585;28;20047;-74
2022/01/14 04:42:59;;;;;;;46.17;19.35;;;6.00;99.90;;;;;;4980505;28;20087;-74
2022/01/14 04:47:54;;;;;;;41.38;19.70;;;6.20;99.90;;;;;;5011396;28;20054;-74
2022/01/14 04:50:21;;;;;;;39.33;19.65;;;6.00;99.90;;;;;;4979230;28;20093;-74
2022/01/14 04:52:48;;;;;;;42.97;20.33;;;6.00;99.90;;;;;;4977896;28;20061;-74
2022/01/14 04:55:18;;;;;;;37.78;19.98;;;6.00;99.90;;;;;;4985665;28;20046;-74
2022/01/14 04:57:44;;;;;;;39.65;19.27;;;5.90;99.90;;;;;;5019225;28;20123;-74
2022/01/14 05:00:13;;;;;;;42.13;19.23;;;5.90;99.90;;;;;;4980573;28;20058;-74
2022/01/14 05:02:40;;;;;;;34.67;18.63;;;5.90;99.90;;;;;;4980607;28;20133;-74
2022/01/14 05:05:07;;;;;;;45.28;22.27;;;5.90;99.90;;;;;;5042363;28;20057;-74
2022/01/14 05:07:34;;;;;;;39.88;20.70;;;5.90;99.90;;;;;;4977267;28;20127;-74
2022/01/14 05:12:40;;;;;;;33.72;20.83;;;5.90;99.90;;;;;;4971176;28;20436;-74
2022/01/14 05:15:07;;;;;;;39.28;20.30;;;5.90;99.90;;;;;;4988313;28;20038;-74
2022/01/14 05:17:33;;;;;;;44.97;20.02;;;5.90;99.90;;;;;;4977546;28;20046;-74
2022/01/14 05:19:59;;;;;;;41.67;22.42;;;5.90;99.90;;;;;;4976107;28;20047;-74
2022/01/14 05:22:26;;;;;;;42.40;21.80;;;5.90;99.90;;;;;;4998140;28;20489;-74
2022/01/14 05:24:52;;;;;;;47.53;22.77;;;5.90;99.90;;;;;;5071341;28;20050;-74
2022/01/14 05:27:18;;;;;;;37.60;20.45;;;5.90;99.90;;;;;;4989110;28;20092;-74
2022/01/14 05:29:43;;;;;;;37.30;21.88;;;5.90;99.90;;;;;;4982732;28;20058;-74
2022/01/14 05:32:13;;;;;;;39.38;19.73;;;5.90;99.90;;;;;;4974419;28;20088;-75
2022/01/14 05:34:40;;;;;;;34.25;18.75;;;5.90;99.90;;;;;;5018365;28;20138;-74
2022/01/14 05:37:06;;;;;;;41.75;19.88;;;5.90;99.90;;;;;;4983633;28;20049;-75
2022/01/14 05:39:32;;;;;;;44.33;21.33;;;5.90;99.90;;;;;;4989920;28;20085;-74
2022/01/14 05:41:59;;;;;;;39.05;19.48;;;6.00;99.90;;;;;;4974014;28;20050;-75
2022/01/14 05:44:26;;;;;;;40.80;20.45;;;5.90;99.90;;;;;;4991308;28;20103;-75
2022/01/14 05:46:53;;;;;;;39.55;21.67;;;5.90;99.90;;;;;;4987565;28;20049;-75
2022/01/14 05:49:19;;;;;;;40.70;21.33;;;5.90;99.90;;;;;;4987160;28;20042;-75
2022/01/14 05:51:46;;;;;;;33.28;19.15;;;5.90;99.90;;;;;;4984053;28;20084;-75
2022/01/14 05:54:12;;;;;;;43.25;20.83;;;5.90;99.90;;;;;;4978190;28;20038;-75
2022/01/14 05:56:38;;;;;;;35.72;19.40;;;5.90;99.90;;;;;;4971685;28;20092;-75
2022/01/14 05:59:04;;;;;;;36.97;21.30;;;5.90;99.90;;;;;;4989907;28;20424;-75
2022/01/14 06:01:32;;;;;;;36.55;20.63;;;5.90;99.90;;;;;;4985564;28;20089;-75
2022/01/14 06:04:03;;;;;;;35.47;19.15;;;5.90;99.90;;;;;;4985677;28;20768;-75
2022/01/14 06:06:29;;;;;;;33.83;19.33;;;5.90;99.90;;;;;;4981755;28;20055;-75
2022/01/14 06:08:55;;;;;;;36.55;20.10;;;5.90;99.90;;;;;;4970875;28;20058;-75
2022/01/14 06:11:21;;;;;;;33.03;20.02;;;5.90;99.90;;;;;;4973266;28;20393;-75
2022/01/14 06:13:47;;;;;;;33.28;19.83;;;5.90;99.90;;;;;;4975888;28;20065;-75
2022/01/14 06:16:13;;;;;;;33.58;18.70;;;5.90;99.90;;;;;;4972699;28;20058;-74
2022/01/14 06:18:39;;;;;;;43.28;22.10;;;6.00;99.90;;;;;;4981213;28;20039;-74
2022/01/14 06:21:05;;;;;;;41.00;21.05;;;6.00;99.90;;;;;;4974127;28;20106;-74
2022/01/14 06:23:31;;;;;;;31.98;19.05;;;5.90;99.90;;;;;;4978984;28;20070;-74
2022/01/14 06:25:56;;;;;;;40.55;20.33;;;5.90;99.90;;;;;;4981540;28;20058;-74
2022/01/14 06:28:22;;;;;;;42.13;20.23;;;5.90;99.90;;;;;;4983834;28;20042;-75
2022/01/14 06:30:48;;;;;;;33.08;18.98;;;5.90;99.90;;;;;;4976281;28;20051;-75
2022/01/14 06:33:14;;;;;;;33.60;18.83;;;6.00;99.90;;;;;;4984240;28;20115;-74
2022/01/14 06:35:40;;;;;;;33.33;19.13;;;6.30;99.90;;;;;;4975439;28;20105;-75
2022/01/14 06:38:05;;;;;;;39.33;19.23;;;5.90;99.90;;;;;;4979438;28;20743;-75
2022/01/14 06:40:31;;;;;;;46.45;20.30;;;6.00;99.90;;;;;;4977454;28;20042;-74
2022/01/14 06:42:58;;;;;;;37.20;18.80;;;6.00;99.90;;;;;;4992032;28;20061;-75
2022/01/14 06:45:24;;;;;;;32.05;18.90;;;6.00;99.90;;;;;;4978380;28;20054;-75
2022/01/14 06:47:50;;;;;;;41.53;19.60;;;6.00;99.90;;;;;;4978516;28;20046;-76
2022/01/14 06:50:17;;;;;;;42.60;18.45;;;6.00;99.90;;;;;;5001236;28;20215;-75
2022/01/14 06:52:42;;;;;;;40.08;19.83;;;6.00;99.90;;;;;;5062814;28;20385;-76
2022/01/14 06:55:09;;;;;;;38.47;19.90;;;6.00;99.90;;;;;;4993427;28;20039;-76
2022/01/14 06:57:35;;;;;;;36.30;19.10;;;5.90;99.90;;;;;;5000615;28;20057;-76
2022/01/14 07:00:04;;;;;;;40.97;20.00;;;6.00;99.90;;;;;;4982247;28;20046;-76
2022/01/14 07:02:29;;;;;;;39.38;19.10;;;6.00;99.90;;;;;;4976911;28;20101;-76
2022/01/14 07:04:55;;;;;;;43.70;19.70;;;6.00;99.90;;;;;;4985786;28;20127;-76
2022/01/14 07:07:21;;;;;;;37.88;18.38;;;6.00;99.90;;;;;;4972720;28;20047;-76
2022/01/14 07:09:58;;;;;;;33.65;18.10;;;6.00;99.90;;;;;;4975606;28;20196;-76
2022/01/14 07:12:25;;;;;;;32.88;18.75;;;6.00;99.90;;;;;;4971576;28;20046;-74
2022/01/14 07:14:53;;;;;;;31.98;18.13;;;6.00;99.90;;;;;;4973116;28;20125;-71
2022/01/14 07:17:19;;;;;;;42.72;18.58;;;6.00;99.90;;;;;;4975621;28;20050;-72
2022/01/14 07:19:46;;;;;;;34.55;18.88;;;6.00;99.90;;;;;;4992429;28;20058;-72
2022/01/14 07:22:12;;;;;;;32.15;18.23;;;6.10;99.90;;;;;;4978190;28;20046;-73
2022/01/14 07:24:38;;;;;;;34.58;16.92;;;6.00;99.90;;;;;;4977696;28;20103;-75
2022/01/14 07:27:04;;;;;;;33.88;17.25;;;6.00;99.90;;;;;;4976273;28;20521;-73
2022/01/14 07:29:29;;;;;;;40.88;18.30;;;6.10;99.90;;;;;;4972925;28;20074;-73
2022/01/14 07:31:55;;;;;;;33.92;16.42;;;6.10;99.90;;;;;;4975068;28;20386;-73
2022/01/14 07:34:20;;;;;;;31.35;16.60;;;6.10;99.90;;;;;;4973871;28;20060;-73
2022/01/14 07:36:46;;;;;;;28.50;15.32;;;6.10;99.90;;;;;;4979286;28;20504;-75
2022/01/14 07:39:12;;;;;;;36.45;16.90;;;6.10;99.90;;;;;;4975267;28;20155;-75
2022/01/14 07:41:37;;;;;;;33.97;16.75;;;6.10;99.90;;;;;;4971488;28;20046;-76
2022/01/14 07:44:04;;;;;;;36.53;16.88;;;6.10;99.90;;;;;;4980891;28;20511;-75
2022/01/14 07:46:29;;;;;;;31.15;16.58;;;6.10;99.90;;;;;;4970119;28;20209;-75
2022/01/14 07:48:55;;;;;;;31.38;16.70;;;6.10;99.90;;;;;;4981788;28;20126;-76
2022/01/14 07:51:21;;;;;;;37.95;15.70;;;6.10;99.90;;;;;;4985040;28;20050;-75
2022/01/14 07:53:46;;;;;;;32.75;16.40;;;6.10;99.90;;;;;;4970813;28;20066;-75
2022/01/14 07:56:13;;;;;;;32.58;16.80;;;6.10;99.90;;;;;;4984047;28;20049;-75
2022/01/14 07:58:41;;;;;;;29.45;15.85;;;6.10;99.90;;;;;;4985905;28;20047;-75
2022/01/14 08:01:07;;;;;;;35.67;16.90;;;6.10;99.90;;;;;;4974470;28;20043;-75
2022/01/14 08:03:32;;;;;;;32.53;15.55;;;6.10;99.90;;;;;;4979916;28;20046;-75
2022/01/14 08:06:00;;;;;;;27.30;15.13;;;6.10;99.90;;;;;;4981799;28;20175;-75
2022/01/14 08:08:25;;;;;;;32.70;15.68;;;6.20;99.90;;;;;;4977699;28;20046;-75
2022/01/14 08:10:51;;;;;;;30.77;14.95;;;6.10;99.90;;;;;;4971606;28;20051;-75
2022/01/14 08:13:17;;;;;;;27.25;15.52;;;6.20;99.90;;;;;;4975221;28;20145;-75
2022/01/14 08:15:42;;;;;;;38.83;14.48;;;6.20;99.90;;;;;;4968539;28;20042;-76
2022/01/14 08:18:09;;;;;;;27.17;15.30;;;6.20;99.90;;;;;;4982023;28;20053;-75
2022/01/14 08:20:34;;;;;;;29.88;14.93;;;6.20;99.90;;;;;;4980932;28;20050;-75
2022/01/14 08:23:00;;;;;;;30.55;14.75;;;6.20;99.90;;;;;;4981016;28;20046;-75
2022/01/14 08:25:27;;;;;;;33.00;14.80;;;6.20;99.90;;;;;;4992616;28;20039;-75
2022/01/14 08:27:53;;;;;;;27.92;13.85;;;6.20;99.90;;;;;;4988277;28;20042;-75
2022/01/14 08:30:18;;;;;;;31.65;14.07;;;6.20;99.90;;;;;;4981621;28;20050;-75
2022/01/14 08:32:44;;;;;;;24.88;13.63;;;6.20;99.90;;;;;;4982786;28;20046;-73
2022/01/14 08:35:10;;;;;;;32.13;13.98;;;6.20;99.90;;;;;;4989862;28;20061;-74
2022/01/14 08:37:39;;;;;;;29.90;13.48;;;6.20;99.90;;;;;;5004006;28;20056;-75
2022/01/14 08:40:07;;;;;;;31.58;14.07;;;6.30;99.90;;;;;;4970369;28;20049;-75
2022/01/14 08:42:33;;;;;;;30.50;13.02;;;6.30;99.90;;;;;;4975546;28;20525;-75
2022/01/14 08:44:59;;;;;;;24.60;12.68;;;6.30;99.90;;;;;;4976955;28;20055;-75
2022/01/14 08:47:25;;;;;;;31.92;13.45;;;6.30;99.90;;;;;;4976003;28;20088;-75
2022/01/14 08:49:50;;;;;;;28.98;13.10;;;6.30;99.90;;;;;;4970582;28;20050;-75
2022/01/14 08:52:16;;;;;;;32.72;13.00;;;6.30;99.90;;;;;;5038517;28;20093;-75
2022/01/14 08:54:43;;;;;;;23.73;12.55;;;6.40;99.90;;;;;;4989916;28;20047;-75
2022/01/14 08:57:09;;;;;;;32.65;12.95;;;6.40;99.90;;;;;;4988444;28;20039;-75
2022/01/14 08:59:36;;;;;;;25.33;12.68;;;6.40;99.90;;;;;;4980673;28;20054;-75
2022/01/14 09:02:02;;;;;;;31.42;12.88;;;6.40;99.90;;;;;;4972590;28;20062;-75
2022/01/14 09:04:28;;;;;;;30.75;13.07;;;6.40;99.90;;;;;;4976318;28;20050;-75
2022/01/14 09:06:53;;;;;;;27.20;12.00;;;6.40;99.90;;;;;;4991103;28;20044;-75
2022/01/14 09:09:19;;;;;;;28.67;11.02;;;6.50;99.90;;;;;;4985431;28;20054;-75
2022/01/14 09:11:45;;;;;;;22.15;10.60;;;6.50;99.90;;;;;;4973138;28;20134;-76
2022/01/14 09:14:10;;;;;;;22.00;10.65;;;6.50;99.90;;;;;;4979528;28;20046;-75
2022/01/14 09:16:36;;;;;;;22.52;10.55;;;6.50;99.90;;;;;;4982421;28;20088;-75
2022/01/14 09:19:02;;;;;;;20.98;9.48;;;6.50;99.90;;;;;;4986978;28;20043;-75
2022/01/14 09:21:27;;;;;;;23.00;9.50;;;6.50;99.90;;;;;;4980084;28;20461;-75
2022/01/14 09:24:05;;;;;;;20.13;10.07;;;6.60;99.90;;;;;;5044480;28;20058;-75
2022/01/14 09:26:33;;;;;;;23.25;9.50;;;6.60;99.90;;;;;;4986953;28;20431;-75
2022/01/14 09:28:59;;;;;;;21.98;8.52;;;6.60;99.90;;;;;;4977433;28;20061;-75
2022/01/14 09:31:24;;;;;;;19.33;8.32;;;6.60;99.90;;;;;;4977507;28;20050;-75
2022/01/14 09:33:50;;;;;;;18.23;8.38;;;6.60;99.90;;;;;;4997910;28;20364;-75
2022/01/14 09:36:16;;;;;;;19.95;8.32;;;6.70;99.90;;;;;;4995176;28;20495;-75
2022/01/14 09:38:42;;;;;;;19.70;8.10;;;6.70;99.90;;;;;;4984627;28;20050;-75
2022/01/14 09:41:08;;;;;;;16.67;7.40;;;6.70;99.90;;;;;;4989696;28;20042;-75
2022/01/14 09:43:36;;;;;;;13.45;6.90;;;6.70;99.90;;;;;;4985052;28;20056;-75
2022/01/14 09:46:05;;;;;;;17.05;7.30;;;6.80;99.90;;;;;;4975073;28;20046;-75
2022/01/14 09:48:31;;;;;;;16.98;7.75;;;6.80;99.90;;;;;;4978109;28;20035;-76
2022/01/14 09:50:57;;;;;;;16.83;7.15;;;6.80;99.90;;;;;;4979578;28;20100;-75
2022/01/14 09:53:25;;;;;;;15.05;7.60;;;6.80;99.90;;;;;;4979263;28;20043;-74
2022/01/14 09:55:51;;;;;;;18.25;7.18;;;6.80;99.90;;;;;;4982237;28;20050;-75
2022/01/14 09:58:16;;;;;;;15.30;6.28;;;6.80;99.90;;;;;;4992479;28;20374;-75
2022/01/14 10:00:42;;;;;;;15.32;6.82;;;6.80;99.90;;;;;;4973984;28;20141;-75
2022/01/14 10:03:19;;;;;;;22.50;7.38;;;6.80;99.90;;;;;;4975430;28;20047;-75
2022/01/14 10:05:48;;;;;;;14.35;6.10;;;6.90;99.90;;;;;;4977035;28;20043;-75
2022/01/14 10:08:22;;;;;;;16.40;6.30;;;6.90;99.90;;;;;;5017465;28;20111;-77
2022/01/14 10:10:51;;;;;;;17.15;7.22;;;6.90;99.90;;;;;;4992339;28;20550;-74
2022/01/14 10:13:20;;;;;;;19.40;6.82;;;7.00;99.90;;;;;;4977999;28;20504;-75
2022/01/14 10:15:53;;;;;;;13.85;6.63;;;6.90;99.90;;;;;;4979597;28;20078;-75
2022/01/14 10:18:21;;;;;;;21.83;6.47;;;7.00;99.90;;;;;;4980818;28;20046;-74
2022/01/14 10:20:48;;;;;;;14.45;6.57;;;7.00;99.90;;;;;;4982396;28;20032;-74
2022/01/14 10:23:15;;;;;;;14.45;6.07;;;7.00;99.90;;;;;;5017920;28;20078;-75
2022/01/14 10:25:42;;;;;;;17.65;6.32;;;7.00;99.90;;;;;;4981848;28;20057;-75
2022/01/14 10:28:17;;;;;;;16.55;6.40;;;7.00;99.90;;;;;;4983482;28;20042;-75
2022/01/14 10:30:46;;;;;;;22.35;6.75;;;7.00;99.90;;;;;;4982753;28;20061;-75
2022/01/14 10:33:12;;;;;;;16.40;6.25;;;7.00;99.90;;;;;;4974198;28;20043;-75
2022/01/14 10:35:43;;;;;;;17.25;6.35;;;7.00;99.90;;;;;;4975350;28;20057;-75
2022/01/14 10:38:11;;;;;;;13.85;6.00;;;7.10;99.90;;;;;;4989611;28;20728;-75
2022/01/14 10:40:52;;;;;;;15.15;5.55;;;7.10;99.90;;;;;;4977989;28;20129;-74
2022/01/14 10:43:22;;;;;;;15.20;5.93;;;7.10;99.90;;;;;;4985134;28;20050;-74
2022/01/14 10:45:49;;;;;;;15.15;5.25;;;7.10;99.90;;;;;;4979600;28;20046;-74
2022/01/14 10:48:25;;;;;;;23.50;7.60;;;7.00;99.90;;;;;;4975908;28;20137;-74
2022/01/14 10:51:02;;;;;;;21.40;10.10;;;7.10;99.90;;;;;;4975231;28;20055;-74
2022/01/14 10:53:37;;;;;;;13.07;5.93;;;7.10;99.90;;;;;;4980285;28;20038;-74
2022/01/14 10:56:05;;;;;;;;;;;7.10;99.90;;;;;;4978387;28;20070;-75
2022/01/14 10:58:37;;;;;;;15.82;5.60;;;7.10;99.90;;;;;;5016889;28;19922;-75
2022/01/14 11:01:06;;;;;;;17.63;4.97;;;7.10;99.90;;;;;;4986353;28;20050;-75
2022/01/14 11:03:52;;;;;;;14.85;4.57;;;7.10;99.90;;;;;;4984071;28;20046;-75
2022/01/14 11:06:23;;;;;;;14.77;4.70;;;7.10;99.90;;;;;;4974771;28;20062;-73
2022/01/14 11:08:56;;;;;;;12.98;4.53;;;7.10;99.90;;;;;;4982774;28;20042;-77
2022/01/14 11:11:22;;;;;;;16.38;4.97;;;7.10;99.90;;;;;;4975335;28;20050;-74
2022/01/14 11:13:47;;;;;;;15.80;3.95;;;7.10;99.90;;;;;;4979690;28;20495;-73
2022/01/14 11:16:13;;;;;;;12.98;3.90;;;7.10;99.90;;;;;;4984445;28;20058;-74
2022/01/14 11:18:39;;;;;;;13.07;4.63;;;7.20;99.90;;;;;;4984941;28;20038;-74
2022/01/14 11:23:49;;;;;;;8.30;3.80;;;7.20;99.90;;;;;;4979523;28;20053;-74
2022/01/14 11:26:19;;;;;;;13.35;3.90;;;7.20;99.90;;;;;;4983969;28;20129;-74
2022/01/14 11:28:46;;;;;;;14.13;4.28;;;7.20;99.90;;;;;;4999458;28;20075;-74
2022/01/14 11:31:33;;;;;;;9.82;3.30;;;7.20;99.90;;;;;;4986796;28;20551;-74
2022/01/14 11:34:01;;;;;;;14.20;4.05;;;7.10;99.90;;;;;;4982010;28;20053;-73
2022/01/14 11:36:52;;;;;;;9.65;3.67;;;7.20;99.90;;;;;;4973939;28;20054;-74
2022/01/14 11:39:24;;;;;;;13.60;3.90;;;6.40;99.90;;;;;;4972991;28;20054;-74
2022/01/14 11:42:01;;;;;;;12.45;4.20;;;7.20;99.90;;;;;;4974075;28;20053;-73
2022/01/14 11:44:46;;;;;;;11.07;3.83;;;7.20;99.90;;;;;;5019067;28;20050;-74
2022/01/14 11:47:24;;;;;;;12.95;3.50;;;7.20;99.90;;;;;;4989542;28;20406;-74
2022/01/14 11:49:51;;;;;;;18.40;3.90;;;7.20;99.90;;;;;;4981837;28;20046;-74
2022/01/14 11:52:32;;;;;;;8.05;3.40;;;7.20;99.90;;;;;;4973535;28;20049;-74
2022/01/14 11:54:58;;;;;;;13.63;4.03;;;7.20;99.90;;;;;;4986563;28;20053;-73
2022/01/14 11:57:45;;;;;;;13.15;3.78;;;7.30;99.90;;;;;;5054106;28;20039;-74
2022/01/14 12:00:41;;;;;;;15.30;4.03;;;7.20;99.90;;;;;;5030093;28;20075;-74
2022/01/14 12:03:06;;;;;;;12.55;3.47;;;7.30;99.90;;;;;;4976812;28;20142;-73
2022/01/14 12:05:37;;;;;;;14.10;4.25;;;7.30;99.90;;;;;;4980786;28;20128;-73
2022/01/14 12:10:30;;;;;;;16.30;4.15;;;7.30;99.90;;;;;;4973575;28;20413;-74
2022/01/14 12:13:16;;;;;;;18.00;4.78;;;7.30;99.90;;;;;;4979406;28;20470;-74
2022/01/14 12:16:03;;;;;;;14.25;3.95;;;7.30;99.90;;;;;;4996271;28;20039;-73
2022/01/14 12:18:57;;;;;;;20.63;4.78;;;7.30;99.90;;;;;;4985413;28;20053;-73
2022/01/14 12:21:37;;;;;;;15.10;4.20;;;7.30;99.90;;;;;;4975227;28;20051;-73
2022/01/14 12:24:18;;;;;;;15.65;4.07;;;7.30;99.90;;;;;;4980744;28;20093;-73
2022/01/14 12:26:53;;;;;;;13.43;4.07;;;7.30;99.90;;;;;;4973342;28;20474;-73
2022/01/14 12:29:31;;;;;;;18.65;4.47;;;7.30;99.90;;;;;;4973510;28;20607;-74
2022/01/14 12:32:09;;;;;;;18.95;4.80;;;7.30;99.90;;;;;;5007308;28;20050;-74
2022/01/14 12:34:56;;;;;;;17.95;4.63;;;7.30;99.90;;;;;;4975801;28;20042;-73
2022/01/14 12:37:44;;;;;;;16.17;5.03;;;7.30;99.90;;;;;;4980790;28;20043;-73
2022/01/14 12:40:21;;;;;;;13.23;4.38;;;7.30;99.90;;;;;;4986122;28;20145;-73
2022/01/14 12:43:15;;;;;;;16.02;4.78;;;7.30;99.90;;;;;;4985293;28;20057;-73
2022/01/14 12:45:59;;;;;;;16.00;4.78;;;7.30;99.90;;;;;;4985671;28;20115;-73
2022/01/14 12:48:37;;;;;;;16.07;3.93;;;7.30;99.90;;;;;;4974168;28;20038;-74
2022/01/14 12:51:32;;;;;;;23.65;5.45;;;7.30;99.90;;;;;;4971891;28;20377;-73
2022/01/14 12:53:59;;;;;;;15.60;4.72;;;7.30;99.90;;;;;;4965291;28;20788;-74
2022/01/14 12:56:28;;;;;;;15.57;5.80;;;7.40;99.90;;;;;;4988042;28;20046;-73
2022/01/14 12:59:05;;;;;;;21.27;4.82;;;7.30;99.90;;;;;;4988662;28;20043;-73
2022/01/14 13:01:37;;;;;;;14.90;4.45;;;7.30;99.90;;;;;;4985518;28;20490;-74
2022/01/14 13:04:08;;;;;;;23.42;4.55;;;7.30;99.90;;;;;;5059683;28;20130;-74
2022/01/14 13:06:41;;;;;;;17.63;4.53;;;7.40;99.90;;;;;;4987307;28;20054;-73
2022/01/14 13:09:07;;;;;;;15.40;4.82;;;7.40;99.90;;;;;;4976186;28;20184;-74
2022/01/14 13:11:55;;;;;;;17.05;5.05;;;7.30;99.90;;;;;;4981689;28;20876;-74
2022/01/14 13:14:37;;;;;;;14.60;4.25;;;7.40;99.90;;;;;;4990514;28;20161;-74
2022/01/14 13:17:08;;;;;;;15.75;5.03;;;7.40;99.90;;;;;;4997975;28;20132;-73